Time;durP1;ratioP1;P1;durP2;ratioP2;P2;SDS_P1;SDS_P2;PMS_P1;PMS_P2;Temp;Humidity;BMP_temperature;BMP_pressure;BME280_temperature;BME280_humidity;BME280_pressure;Samples;Min_cycle;Max_cycle;Signal;HPM_P1;HPM_P2
2023/08/04 00:00:18;;;;;;;5.13;2.40;;;;;;;;;;4930030;28;100045;-73
2023/08/04 00:02:45;;;;;;;17.95;3.05;;;;;;;;;;4929494;28;100010;-74
2023/08/04 00:05:11;;;;;;;4.20;2.30;;;;;;;;;;4930136;28;99988;-75
2023/08/04 00:07:37;;;;;;;8.90;2.78;;;;;;;;;;4930571;28;100026;-75
2023/08/04 00:10:04;;;;;;;9.38;2.75;;;;;;;;;;4933239;28;99338;-75
2023/08/04 00:12:31;;;;;;;8.45;2.60;;;;;;;;;;4930850;28;99960;-75
2023/08/04 00:14:57;;;;;;;12.25;2.78;;;;;;;;;;4930250;28;99484;-73
2023/08/04 00:17:24;;;;;;;8.77;3.83;;;;;;;;;;4928151;28;98993;-75
2023/08/04 00:19:51;;;;;;;11.77;2.63;;;;;;;;;;4929813;28;100000;-75
2023/08/04 00:22:17;;;;;;;2.88;2.60;;;;;;;;;;4929552;28;99717;-75
2023/08/04 00:24:44;;;;;;;6.40;2.65;;;;;;;;;;4928824;28;99902;-75
2023/08/04 00:27:10;;;;;;;3.67;2.13;;;;;;;;;;4929980;28;98937;-75
2023/08/04 00:29:37;;;;;;;8.40;2.40;;;;;;;;;;4927864;28;99390;-73
2023/08/04 00:32:03;;;;;;;8.38;2.70;;;;;;;;;;4933466;28;99082;-73
2023/08/04 00:34:30;;;;;;;6.35;2.28;;;;;;;;;;4928371;28;100223;-74
2023/08/04 00:36:56;;;;;;;10.80;3.08;;;;;;;;;;4928877;28;101695;-74
2023/08/04 00:39:23;;;;;;;4.60;2.88;;;;;;;;;;4930095;28;99160;-75
2023/08/04 00:41:50;;;;;;;8.15;2.38;;;;;;;;;;4930068;28;100595;-74
2023/08/04 00:44:16;;;;;;;11.60;2.38;;;;;;;;;;4929120;28;100122;-73
2023/08/04 00:46:43;;;;;;;8.98;2.60;;;;;;;;;;4929114;28;102384;-74
2023/08/04 00:49:10;;;;;;;8.20;2.80;;;;;;;;;;4930063;28;99362;-72
2023/08/04 00:51:36;;;;;;;5.45;2.33;;;;;;;;;;4928542;28;101431;-74
2023/08/04 00:54:04;;;;;;;8.60;3.63;;;;;;;;;;4933051;28;99204;-74
2023/08/04 00:56:33;;;;;;;8.63;1.90;;;;;;;;;;4929295;28;99203;-73
2023/08/04 00:59:01;;;;;;;8.25;2.60;;;;;;;;;;4927577;28;101533;-75
2023/08/04 01:01:27;;;;;;;7.18;2.17;;;;;;;;;;4929868;28;98593;-75
2023/08/04 01:03:56;;;;;;;8.52;2.35;;;;;;;;;;4918424;28;99953;-75
2023/08/04 01:06:27;;;;;;;6.88;3.75;;;;;;;;;;4920656;28;102352;-75
2023/08/04 01:09:14;;;;;;;8.70;2.92;;;;;;;;;;4910012;28;100805;-73
2023/08/04 01:11:50;;;;;;;21.85;2.97;;;;;;;;;;4909618;28;99960;-73
2023/08/04 01:14:18;;;;;;;4.05;2.25;;;;;;;;;;4910217;28;99427;-73
2023/08/04 01:16:44;;;;;;;12.27;2.78;;;;;;;;;;4930951;28;99673;-73
2023/08/04 01:19:11;;;;;;;6.50;2.75;;;;;;;;;;4928153;28;98764;-73
2023/08/04 01:21:44;;;;;;;7.05;2.25;;;;;;;;;;4929506;28;99560;-75
2023/08/04 01:24:11;;;;;;;6.30;2.38;;;;;;;;;;4928818;28;99101;-76
2023/08/04 01:26:40;;;;;;;10.68;3.17;;;;;;;;;;4929000;28;100079;-75
2023/08/04 01:29:09;;;;;;;13.32;2.58;;;;;;;;;;4929131;28;99379;-75
2023/08/04 01:31:37;;;;;;;9.60;3.05;;;;;;;;;;4928413;28;99231;-75
2023/08/04 01:34:03;;;;;;;11.10;2.88;;;;;;;;;;4926365;28;99354;-75
2023/08/04 01:36:30;;;;;;;8.60;2.35;;;;;;;;;;4929038;28;99018;-75
2023/08/04 01:38:58;;;;;;;6.50;2.17;;;;;;;;;;4932330;28;98890;-73
2023/08/04 01:41:25;;;;;;;17.08;2.83;;;;;;;;;;4928292;28;99361;-75
2023/08/04 01:43:51;;;;;;;7.63;2.65;;;;;;;;;;4928023;28;99154;-74
2023/08/04 01:46:18;;;;;;;7.32;2.97;;;;;;;;;;4928525;28;98966;-73
2023/08/04 01:48:44;;;;;;;3.92;2.28;;;;;;;;;;4927661;28;99170;-74
2023/08/04 01:51:11;;;;;;;6.65;2.42;;;;;;;;;;4927624;28;101600;-74
2023/08/04 01:53:37;;;;;;;4.57;2.08;;;;;;;;;;4928652;28;99883;-74
2023/08/04 01:56:03;;;;;;;7.43;2.50;;;;;;;;;;4927766;28;100333;-75
2023/08/04 01:58:30;;;;;;;7.45;2.33;;;;;;;;;;4928894;28;102300;-74
2023/08/04 02:00:56;;;;;;;8.77;2.33;;;;;;;;;;4926424;28;100405;-74
2023/08/04 02:03:23;;;;;;;8.15;2.35;;;;;;;;;;4927818;28;99120;-75
2023/08/04 02:05:49;;;;;;;10.50;2.40;;;;;;;;;;4926296;28;100718;-74
2023/08/04 02:08:16;;;;;;;3.03;2.00;;;;;;;;;;4928388;28;99494;-74
2023/08/04 02:10:49;;;;;;;7.90;2.47;;;;;;;;;;4929216;28;99533;-74
2023/08/04 02:13:16;;;;;;;9.25;2.75;;;;;;;;;;4929210;28;99248;-74
2023/08/04 02:15:42;;;;;;;10.18;3.00;;;;;;;;;;4928935;28;98841;-74
2023/08/04 02:18:09;;;;;;;12.07;3.33;;;;;;;;;;4928606;28;98945;-75
2023/08/04 02:20:35;;;;;;;6.22;2.22;;;;;;;;;;4931620;28;99400;-75
2023/08/04 02:23:02;;;;;;;8.98;2.50;;;;;;;;;;4927181;28;100449;-74
2023/08/04 02:25:29;;;;;;;10.02;2.13;;;;;;;;;;4926693;28;101283;-74
2023/08/04 02:27:55;;;;;;;14.85;2.42;;;;;;;;;;4928171;28;99194;-74
2023/08/04 02:30:22;;;;;;;8.15;2.10;;;;;;;;;;4927592;28;99017;-74
2023/08/04 02:32:49;;;;;;;4.45;1.98;;;;;;;;;;4928501;28;98762;-74
2023/08/04 02:35:17;;;;;;;11.40;2.53;;;;;;;;;;4927460;28;100710;-74
2023/08/04 02:37:44;;;;;;;9.23;2.42;;;;;;;;;;4927813;28;98747;-74
2023/08/04 02:40:11;;;;;;;3.60;2.13;;;;;;;;;;4928981;28;99301;-74
2023/08/04 02:42:37;;;;;;;6.43;2.20;;;;;;;;;;4932011;28;99560;-74
2023/08/04 02:45:06;;;;;;;9.60;2.63;;;;;;;;;;4927735;28;99430;-73
2023/08/04 02:47:32;;;;;;;7.13;2.25;;;;;;;;;;4927792;28;100049;-74
2023/08/04 02:49:59;;;;;;;16.10;2.58;;;;;;;;;;4925916;28;101093;-74
2023/08/04 02:52:26;;;;;;;12.48;3.15;;;;;;;;;;4927224;28;99105;-73
2023/08/04 02:54:53;;;;;;;10.90;2.45;;;;;;;;;;4926703;28;100969;-74
2023/08/04 02:57:20;;;;;;;12.32;2.67;;;;;;;;;;4926521;28;98977;-74
2023/08/04 02:59:47;;;;;;;12.32;2.72;;;;;;;;;;4928075;28;99487;-73
2023/08/04 03:02:13;;;;;;;12.25;2.45;;;;;;;;;;4927596;28;100568;-73
2023/08/04 03:04:40;;;;;;;6.97;2.45;;;;;;;;;;4928960;28;100115;-76
2023/08/04 03:07:06;;;;;;;11.77;2.65;;;;;;;;;;4927839;28;99998;-75
2023/08/04 03:09:33;;;;;;;8.07;2.05;;;;;;;;;;4927154;28;100073;-74
2023/08/04 03:11:59;;;;;;;22.50;2.78;;;;;;;;;;4926967;28;99744;-74
2023/08/04 03:14:26;;;;;;;12.90;3.72;;;;;;;;;;4927721;28;99624;-75
2023/08/04 03:16:52;;;;;;;8.18;2.80;;;;;;;;;;4927857;28;99967;-74
2023/08/04 03:19:19;;;;;;;2.67;1.90;;;;;;;;;;4926579;28;99958;-74
2023/08/04 03:21:45;;;;;;;11.57;2.45;;;;;;;;;;4927471;28;100302;-74
2023/08/04 03:24:12;;;;;;;12.73;3.58;;;;;;;;;;4926982;28;99426;-74
2023/08/04 03:26:39;;;;;;;12.05;3.03;;;;;;;;;;4929690;28;99336;-74
2023/08/04 03:29:05;;;;;;;7.55;2.00;;;;;;;;;;4927831;28;98983;-74
2023/08/04 03:31:31;;;;;;;11.30;2.75;;;;;;;;;;4926579;28;98495;-74
2023/08/04 03:33:58;;;;;;;10.32;2.53;;;;;;;;;;4925984;28;99917;-74
2023/08/04 03:36:24;;;;;;;13.30;2.40;;;;;;;;;;4926573;28;100098;-75
2023/08/04 03:38:51;;;;;;;10.07;2.35;;;;;;;;;;4927618;28;99998;-74
2023/08/04 03:41:17;;;;;;;10.50;2.60;;;;;;;;;;4926419;28;100271;-74
2023/08/04 03:43:44;;;;;;;11.80;2.40;;;;;;;;;;4927648;28;100400;-75
2023/08/04 03:46:11;;;;;;;7.95;2.58;;;;;;;;;;4927578;28;99779;-74
2023/08/04 03:48:37;;;;;;;11.93;2.50;;;;;;;;;;4929424;28;100504;-74
2023/08/04 03:51:04;;;;;;;4.95;2.10;;;;;;;;;;4926812;28;99217;-74
2023/08/04 03:53:30;;;;;;;9.45;2.35;;;;;;;;;;4926362;28;99479;-73
2023/08/04 03:55:57;;;;;;;10.93;2.10;;;;;;;;;;4926906;28;98958;-74
2023/08/04 03:58:23;;;;;;;12.45;2.58;;;;;;;;;;4926961;28;100013;-73
2023/08/04 04:00:49;;;;;;;11.25;2.58;;;;;;;;;;4925744;28;99810;-74
2023/08/04 04:03:16;;;;;;;10.48;3.10;;;;;;;;;;4926129;28;99738;-74
2023/08/04 04:05:42;;;;;;;17.98;3.58;;;;;;;;;;4925183;28;99409;-75
2023/08/04 04:08:09;;;;;;;16.23;2.70;;;;;;;;;;4929694;28;100487;-74
2023/08/04 04:10:35;;;;;;;12.98;3.67;;;;;;;;;;4926807;28;98770;-74
2023/08/04 04:13:02;;;;;;;10.40;2.90;;;;;;;;;;4926880;28;99339;-75
2023/08/04 04:15:29;;;;;;;13.40;2.50;;;;;;;;;;4925939;28;100198;-73
2023/08/04 04:17:55;;;;;;;10.05;2.88;;;;;;;;;;4929028;28;100065;-73
2023/08/04 04:20:22;;;;;;;12.52;2.65;;;;;;;;;;4926641;28;99198;-73
2023/08/04 04:22:48;;;;;;;4.82;2.38;;;;;;;;;;4929106;28;100573;-76
2023/08/04 04:25:15;;;;;;;9.30;3.35;;;;;;;;;;4929183;28;100112;-74
2023/08/04 04:27:41;;;;;;;5.22;2.50;;;;;;;;;;4929616;28;99461;-74
2023/08/04 04:30:08;;;;;;;7.30;2.70;;;;;;;;;;4932430;28;99003;-74
2023/08/04 04:32:35;;;;;;;7.70;2.28;;;;;;;;;;4929666;28;99753;-74
2023/08/04 04:35:01;;;;;;;8.52;2.33;;;;;;;;;;4929285;28;99936;-75
2023/08/04 04:37:27;;;;;;;6.07;2.80;;;;;;;;;;4928271;28;98862;-75
2023/08/04 04:39:54;;;;;;;8.23;2.65;;;;;;;;;;4929962;28;99367;-73
2023/08/04 04:42:21;;;;;;;9.27;3.28;;;;;;;;;;4930474;28;100095;-73
2023/08/04 04:44:47;;;;;;;5.15;2.95;;;;;;;;;;4929424;28;98559;-73
2023/08/04 04:47:14;;;;;;;5.22;2.47;;;;;;;;;;4929776;28;99240;-73
2023/08/04 04:49:41;;;;;;;5.68;2.40;;;;;;;;;;4927993;28;100201;-73
2023/08/04 04:52:09;;;;;;;6.95;2.60;;;;;;;;;;4932421;28;99548;-73
2023/08/04 04:54:36;;;;;;;2.67;2.10;;;;;;;;;;4930474;28;101094;-75
2023/08/04 04:57:02;;;;;;;7.20;2.08;;;;;;;;;;4931304;28;99282;-73
2023/08/04 04:59:30;;;;;;;12.48;1.95;;;;;;;;;;4931362;28;100211;-73
2023/08/04 05:01:56;;;;;;;4.38;2.30;;;;;;;;;;4930777;28;98901;-74
2023/08/04 05:04:23;;;;;;;8.15;1.85;;;;;;;;;;4927367;28;98974;-73
2023/08/04 05:06:50;;;;;;;3.65;1.52;;;;;;;;;;4910691;28;99689;-75
2023/08/04 05:09:16;;;;;;;4.18;2.10;;;;;;;;;;4910278;28;99979;-75
2023/08/04 05:11:42;;;;;;;1.70;1.60;;;;;;;;;;4909507;28;100133;-74
2023/08/04 05:14:09;;;;;;;3.90;1.92;;;;;;;;;;4926103;28;100288;-75
2023/08/04 05:16:35;;;;;;;5.32;1.67;;;;;;;;;;4928910;28;100921;-73
2023/08/04 05:19:02;;;;;;;4.82;2.10;;;;;;;;;;4928699;28;99413;-73
2023/08/04 05:21:28;;;;;;;3.45;1.63;;;;;;;;;;4928613;28;100053;-74
2023/08/04 05:23:55;;;;;;;5.45;2.47;;;;;;;;;;4928941;28;100617;-73
2023/08/04 05:26:21;;;;;;;11.15;2.55;;;;;;;;;;4927993;28;99639;-75
2023/08/04 05:28:48;;;;;;;5.95;2.53;;;;;;;;;;4928995;28;100043;-74
2023/08/04 05:31:14;;;;;;;9.68;2.55;;;;;;;;;;4928618;28;99114;-74
2023/08/04 05:33:41;;;;;;;3.92;2.85;;;;;;;;;;4927859;28;100249;-73
2023/08/04 05:36:08;;;;;;;8.07;2.25;;;;;;;;;;4931840;28;98956;-73
2023/08/04 05:38:34;;;;;;;3.05;2.50;;;;;;;;;;4928128;28;100288;-73
2023/08/04 05:41:01;;;;;;;10.50;2.55;;;;;;;;;;4929003;28;100139;-73
2023/08/04 05:43:28;;;;;;;3.83;2.78;;;;;;;;;;4928995;28;99942;-73
2023/08/04 05:45:58;;;;;;;5.53;2.63;;;;;;;;;;4928546;28;98557;-74
2023/08/04 05:48:25;;;;;;;6.55;2.38;;;;;;;;;;4928255;28;98891;-73
2023/08/04 05:50:53;;;;;;;3.13;2.30;;;;;;;;;;4928524;28;99908;-75
2023/08/04 05:53:20;;;;;;;6.00;3.10;;;;;;;;;;4927574;28;100651;-73
2023/08/04 05:55:46;;;;;;;3.50;2.17;;;;;;;;;;4929179;28;99970;-73
2023/08/04 05:58:13;;;;;;;5.95;2.30;;;;;;;;;;4931512;28;99142;-73
2023/08/04 06:00:39;;;;;;;6.30;2.92;;;;;;;;;;4927759;28;99363;-73
2023/08/04 06:03:06;;;;;;;8.65;2.47;;;;;;;;;;4927369;28;99103;-74
2023/08/04 06:05:32;;;;;;;3.75;2.22;;;;;;;;;;4926543;28;99420;-74
2023/08/04 06:07:59;;;;;;;4.50;2.42;;;;;;;;;;4926390;28;99192;-74
2023/08/04 06:10:25;;;;;;;3.10;2.40;;;;;;;;;;4928664;28;100364;-74
2023/08/04 06:12:52;;;;;;;5.90;2.85;;;;;;;;;;4928561;28;99116;-74
2023/08/04 06:15:18;;;;;;;8.93;2.70;;;;;;;;;;4925563;28;99524;-73
2023/08/04 06:17:47;;;;;;;9.90;2.50;;;;;;;;;;4922464;28;100261;-74
2023/08/04 06:20:13;;;;;;;9.40;2.63;;;;;;;;;;4919145;28;100022;-74
2023/08/04 06:22:40;;;;;;;5.70;2.15;;;;;;;;;;4919448;28;99184;-74
2023/08/04 06:25:06;;;;;;;8.40;2.65;;;;;;;;;;4918219;28;99487;-74
2023/08/04 06:27:33;;;;;;;4.35;2.00;;;;;;;;;;4919046;28;100686;-74
2023/08/04 06:30:00;;;;;;;4.35;1.88;;;;;;;;;;4920212;28;100613;-74
2023/08/04 06:32:28;;;;;;;6.88;1.85;;;;;;;;;;4919302;28;100014;-74
2023/08/04 06:34:54;;;;;;;4.15;2.45;;;;;;;;;;4918911;28;99588;-72
2023/08/04 06:37:21;;;;;;;4.35;2.13;;;;;;;;;;4919865;28;99429;-73
2023/08/04 06:39:49;;;;;;;3.92;2.22;;;;;;;;;;4923564;28;100151;-73
2023/08/04 06:42:17;;;;;;;7.55;2.53;;;;;;;;;;4920658;28;100916;-73
2023/08/04 06:44:43;;;;;;;4.00;2.10;;;;;;;;;;4926885;28;98745;-74
2023/08/04 06:47:10;;;;;;;4.32;2.20;;;;;;;;;;4928360;28;100300;-75
2023/08/04 06:49:36;;;;;;;5.72;2.33;;;;;;;;;;4927175;28;99735;-75
2023/08/04 06:52:03;;;;;;;8.52;2.63;;;;;;;;;;4925833;28;101020;-74
2023/08/04 06:54:29;;;;;;;5.22;2.58;;;;;;;;;;4926524;28;100043;-74
2023/08/04 06:56:56;;;;;;;8.93;2.45;;;;;;;;;;4921701;28;98796;-74
2023/08/04 06:59:22;;;;;;;4.55;2.20;;;;;;;;;;4911718;28;100495;-74
2023/08/04 07:01:49;;;;;;;7.18;2.15;;;;;;;;;;4913972;28;98841;-74
2023/08/04 07:04:16;;;;;;;3.72;1.90;;;;;;;;;;4926482;28;99496;-72
2023/08/04 07:06:43;;;;;;;4.03;2.47;;;;;;;;;;4927360;28;98896;-73
2023/08/04 07:09:09;;;;;;;3.22;1.95;;;;;;;;;;4926917;28;99016;-75
2023/08/04 07:11:36;;;;;;;2.35;2.15;;;;;;;;;;4926507;28;100174;-76
2023/08/04 07:14:02;;;;;;;2.72;2.20;;;;;;;;;;4928199;28;99118;-75
2023/08/04 07:16:29;;;;;;;7.93;2.70;;;;;;;;;;4926958;28;99276;-75
2023/08/04 07:18:55;;;;;;;4.78;2.28;;;;;;;;;;4927204;28;99419;-75
2023/08/04 07:21:21;;;;;;;5.15;2.40;;;;;;;;;;4927153;28;99066;-74
2023/08/04 07:23:48;;;;;;;3.88;1.92;;;;;;;;;;4929380;28;100188;-75
2023/08/04 07:26:14;;;;;;;4.30;2.10;;;;;;;;;;4926449;28;99075;-76
2023/08/04 07:28:41;;;;;;;5.38;1.80;;;;;;;;;;4927512;28;99918;-75
2023/08/04 07:31:08;;;;;;;2.88;1.95;;;;;;;;;;4927206;28;101290;-73
2023/08/04 07:33:35;;;;;;;3.80;2.03;;;;;;;;;;4926519;28;99162;-73
2023/08/04 07:36:02;;;;;;;2.40;1.92;;;;;;;;;;4926967;28;98869;-73
2023/08/04 07:38:30;;;;;;;3.72;2.03;;;;;;;;;;4925966;28;100370;-74
2023/08/04 07:40:56;;;;;;;6.57;2.10;;;;;;;;;;4926974;28;99305;-73
2023/08/04 07:43:24;;;;;;;9.95;2.17;;;;;;;;;;4927384;28;100045;-73
2023/08/04 07:45:51;;;;;;;3.45;1.80;;;;;;;;;;4930111;28;100266;-73
2023/08/04 07:48:18;;;;;;;2.13;1.77;;;;;;;;;;4927340;28;100560;-74
2023/08/04 07:50:45;;;;;;;4.35;2.03;;;;;;;;;;4926292;28;99198;-73
2023/08/04 07:53:12;;;;;;;4.00;2.03;;;;;;;;;;4925780;28;100005;-73
2023/08/04 07:55:39;;;;;;;6.25;2.13;;;;;;;;;;4927891;28;99924;-73
2023/08/04 07:58:06;;;;;;;4.03;1.92;;;;;;;;;;4930440;28;99063;-74
2023/08/04 08:00:33;;;;;;;3.05;1.50;;;;;;;;;;4929041;28;99003;-73
2023/08/04 08:02:59;;;;;;;2.08;1.42;;;;;;;;;;4930280;28;100391;-74
2023/08/04 08:05:26;;;;;;;2.10;1.40;;;;;;;;;;4929298;28;100195;-73
2023/08/04 08:07:52;;;;;;;1.20;0.93;;;;;;;;;;4932702;28;98480;-73
2023/08/04 08:10:19;;;;;;;1.75;1.15;;;;;;;;;;4930040;28;100329;-74
2023/08/04 08:12:45;;;;;;;4.18;1.30;;;;;;;;;;4930453;28;99992;-74
2023/08/04 08:15:12;;;;;;;1.77;1.35;;;;;;;;;;4929581;28;99932;-73
2023/08/04 08:17:38;;;;;;;1.42;1.00;;;;;;;;;;4929656;28;99665;-74
2023/08/04 08:20:05;;;;;;;2.15;1.10;;;;;;;;;;4929894;28;99234;-74
2023/08/04 08:22:32;;;;;;;1.30;1.13;;;;;;;;;;4929211;28;100044;-73
2023/08/04 08:24:58;;;;;;;2.25;0.90;;;;;;;;;;4929888;28;100751;-74
2023/08/04 08:27:25;;;;;;;1.02;0.93;;;;;;;;;;4932671;28;99136;-74
2023/08/04 08:29:52;;;;;;;2.28;1.10;;;;;;;;;;4926906;28;99983;-73
2023/08/04 08:32:19;;;;;;;2.83;1.10;;;;;;;;;;4928992;28;100210;-73
2023/08/04 08:34:45;;;;;;;4.90;0.95;;;;;;;;;;4928669;28;99749;-73
2023/08/04 08:37:12;;;;;;;0.95;0.88;;;;;;;;;;4928560;28;99467;-74
2023/08/04 08:39:39;;;;;;;0.60;0.60;;;;;;;;;;4929560;28;99160;-74
2023/08/04 08:42:05;;;;;;;1.08;0.98;;;;;;;;;;4929241;28;99031;-74
2023/08/04 08:44:32;;;;;;;2.17;0.70;;;;;;;;;;4929281;28;100170;-75
2023/08/04 08:46:58;;;;;;;1.67;0.93;;;;;;;;;;4930297;28;99208;-74
2023/08/04 08:49:31;;;;;;;1.55;0.85;;;;;;;;;;4931422;28;98487;-72
2023/08/04 08:51:58;;;;;;;1.55;0.93;;;;;;;;;;4929740;28;100567;-73
2023/08/04 08:54:25;;;;;;;4.43;1.00;;;;;;;;;;4928666;28;100084;-74
2023/08/04 08:56:52;;;;;;;2.60;1.20;;;;;;;;;;4928980;28;100118;-75
2023/08/04 08:59:18;;;;;;;1.13;1.00;;;;;;;;;;4929107;28;99797;-73
2023/08/04 09:01:45;;;;;;;1.77;1.20;;;;;;;;;;4929225;28;100336;-73
2023/08/04 09:04:12;;;;;;;1.05;0.93;;;;;;;;;;4928419;28;99703;-72
2023/08/04 09:06:39;;;;;;;7.78;0.90;;;;;;;;;;4928897;28;100156;-74
2023/08/04 09:09:05;;;;;;;1.63;1.00;;;;;;;;;;4928032;28;99014;-74
2023/08/04 09:11:32;;;;;;;1.27;1.00;;;;;;;;;;4932471;28;98639;-74
2023/08/04 09:14:00;;;;;;;6.10;1.95;;;;;;;;;;4929690;28;99249;-74
2023/08/04 09:16:36;;;;;;;1.95;1.00;;;;;;;;;;4929473;28;100065;-74
2023/08/04 09:19:04;;;;;;;2.72;0.90;;;;;;;;;;4928091;28;99661;-73
2023/08/04 09:21:31;;;;;;;1.73;1.17;;;;;;;;;;4929201;28;100570;-74
2023/08/04 09:23:58;;;;;;;7.45;1.40;;;;;;;;;;4928640;28;100198;-74
2023/08/04 09:26:25;;;;;;;1.65;1.05;;;;;;;;;;4928602;28;99038;-74
2023/08/04 09:29:02;;;;;;;6.07;1.10;;;;;;;;;;4929669;28;98838;-73
2023/08/04 09:31:33;;;;;;;1.48;1.15;;;;;;;;;;4927814;28;100224;-73
2023/08/04 09:34:02;;;;;;;2.65;1.20;;;;;;;;;;4932343;28;100311;-74
2023/08/04 09:36:29;;;;;;;11.80;1.67;;;;;;;;;;4928749;28;98933;-74
2023/08/04 09:39:01;;;;;;;2.30;0.98;;;;;;;;;;4927472;28;100087;-74
2023/08/04 09:41:31;;;;;;;1.58;1.00;;;;;;;;;;4928532;28;99202;-74
2023/08/04 09:44:03;;;;;;;1.70;1.10;;;;;;;;;;4928738;28;100130;-74
2023/08/04 09:46:29;;;;;;;5.23;1.00;;;;;;;;;;4928370;28;99972;-73
2023/08/04 09:48:59;;;;;;;2.33;0.90;;;;;;;;;;4929302;28;99941;-74
2023/08/04 09:51:25;;;;;;;0.75;0.70;;;;;;;;;;4928606;28;99694;-74
2023/08/04 09:53:54;;;;;;;2.65;1.20;;;;;;;;;;4927501;28;100305;-72
2023/08/04 09:56:23;;;;;;;2.63;1.00;;;;;;;;;;4931479;28;99044;-75
2023/08/04 09:58:50;;;;;;;2.00;0.85;;;;;;;;;;4928672;28;99455;-73
2023/08/04 10:01:17;;;;;;;1.15;0.90;;;;;;;;;;4927902;28;99869;-75
2023/08/04 10:03:48;;;;;;;3.33;1.20;;;;;;;;;;4928620;28;100568;-74
2023/08/04 10:06:15;;;;;;;2.53;1.20;;;;;;;;;;4927508;28;98938;-74
2023/08/04 10:08:42;;;;;;;1.10;0.80;;;;;;;;;;4927774;28;99342;-74
2023/08/04 10:11:09;;;;;;;2.63;1.25;;;;;;;;;;4928452;28;100429;-73
2023/08/04 10:13:37;;;;;;;6.13;1.38;;;;;;;;;;4927704;28;99913;-74
2023/08/04 10:16:06;;;;;;;2.47;1.33;;;;;;;;;;4931909;28;100573;-73
2023/08/04 10:18:46;;;;;;;1.98;1.10;;;;;;;;;;4927472;28;100558;-73
2023/08/04 10:21:12;;;;;;;2.17;1.00;;;;;;;;;;4927634;28;98926;-74
2023/08/04 10:23:40;;;;;;;4.85;1.25;;;;;;;;;;4928163;28;100306;-73
2023/08/04 10:26:10;;;;;;;1.73;1.13;;;;;;;;;;4928902;28;100044;-73
2023/08/04 10:28:56;;;;;;;5.13;1.20;;;;;;;;;;4927770;28;98620;-74
2023/08/04 10:31:38;;;;;;;3.92;1.98;;;;;;;;;;4924798;28;99514;-76
2023/08/04 10:34:14;;;;;;;9.68;1.40;;;;;;;;;;4917779;28;99875;-72
2023/08/04 10:37:14;;;;;;;2.40;1.00;;;;;;;;;;4923664;28;100328;-72
2023/08/04 10:39:56;;;;;;;2.75;1.00;;;;;;;;;;4897262;28;99445;-72
2023/08/04 10:42:23;;;;;;;2.67;1.40;;;;;;;;;;4926108;28;99209;-73
2023/08/04 10:44:51;;;;;;;9.52;1.20;;;;;;;;;;4922390;28;99911;-74
2023/08/04 10:47:31;;;;;;;7.18;3.08;;;;;;;;;;4921015;28;99183;-73
2023/08/04 10:49:58;;;;;;;6.28;1.83;;;;;;;;;;4907550;28;98937;-73
2023/08/04 10:52:25;;;;;;;2.80;1.40;;;;;;;;;;4908879;28;99534;-73
2023/08/04 10:54:52;;;;;;;3.70;1.50;;;;;;;;;;4908351;28;98955;-74
2023/08/04 10:57:21;;;;;;;3.38;1.17;;;;;;;;;;4907452;28;99028;-73
2023/08/04 10:59:51;;;;;;;1.77;1.10;;;;;;;;;;4907931;28;101120;-73
2023/08/04 11:02:18;;;;;;;5.13;1.33;;;;;;;;;;4911350;28;100266;-73
2023/08/04 11:04:45;;;;;;;4.50;1.30;;;;;;;;;;4906954;28;99928;-73
2023/08/04 11:07:12;;;;;;;5.30;1.25;;;;;;;;;;4909176;28;100186;-74
2023/08/04 11:09:39;;;;;;;1.48;0.95;;;;;;;;;;4926688;28;99042;-74
2023/08/04 11:12:06;;;;;;;4.72;1.27;;;;;;;;;;4926546;28;99908;-74
2023/08/04 11:14:36;;;;;;;3.67;1.73;;;;;;;;;;4927482;28;99089;-74
2023/08/04 11:17:10;;;;;;;6.63;1.50;;;;;;;;;;4926249;28;99042;-72
2023/08/04 11:19:36;;;;;;;2.53;1.02;;;;;;;;;;4928032;28;100325;-75
2023/08/04 11:22:11;;;;;;;2.63;1.55;;;;;;;;;;4927768;28;99798;-74
2023/08/04 11:24:38;;;;;;;5.05;1.45;;;;;;;;;;4920905;28;101660;-76
2023/08/04 11:27:05;;;;;;;3.22;1.10;;;;;;;;;;4921543;28;99892;-74
2023/08/04 11:29:33;;;;;;;5.75;1.20;;;;;;;;;;4918163;28;101056;-75
2023/08/04 11:32:01;;;;;;;3.17;0.88;;;;;;;;;;4920424;28;100551;-73
2023/08/04 11:34:29;;;;;;;3.17;1.10;;;;;;;;;;4921573;28;99955;-74
2023/08/04 11:36:55;;;;;;;0.82;0.82;;;;;;;;;;4921403;28;100812;-73
2023/08/04 11:39:31;;;;;;;3.05;0.85;;;;;;;;;;4923421;28;100811;-74
2023/08/04 11:41:58;;;;;;;1.27;0.60;;;;;;;;;;4920819;28;100144;-74
2023/08/04 11:44:25;;;;;;;2.97;1.10;;;;;;;;;;4913183;28;99980;-73
2023/08/04 11:46:52;;;;;;;3.70;1.00;;;;;;;;;;4925454;28;100040;-74
2023/08/04 11:49:20;;;;;;;2.47;1.40;;;;;;;;;;4919055;28;99729;-77
2023/08/04 11:51:49;;;;;;;4.38;1.17;;;;;;;;;;4918655;28;100045;-74
2023/08/04 11:54:20;;;;;;;2.28;1.05;;;;;;;;;;4918836;28;100386;-73
2023/08/04 11:56:51;;;;;;;3.03;0.98;;;;;;;;;;4920205;28;99903;-74
2023/08/04 11:59:18;;;;;;;1.15;0.75;;;;;;;;;;4920720;28;100347;-73
2023/08/04 12:01:45;;;;;;;2.53;1.10;;;;;;;;;;4920467;28;100076;-75
2023/08/04 12:04:31;;;;;;;1.25;1.10;;;;;;;;;;4920818;28;100060;-73
2023/08/04 12:06:59;;;;;;;2.13;1.10;;;;;;;;;;4917552;28;100958;-74
2023/08/04 12:09:27;;;;;;;1.58;1.08;;;;;;;;;;4921088;28;100255;-75
2023/08/04 12:11:53;;;;;;;0.90;0.88;;;;;;;;;;4917465;28;100001;-74
2023/08/04 12:14:20;;;;;;;1.23;0.82;;;;;;;;;;4920850;28;100085;-74
2023/08/04 12:16:51;;;;;;;1.08;0.90;;;;;;;;;;4921393;28;100615;-75
2023/08/04 12:19:19;;;;;;;1.20;1.10;;;;;;;;;;4923363;28;100015;-75
2023/08/04 12:21:46;;;;;;;1.92;0.90;;;;;;;;;;4926516;28;101149;-78
2023/08/04 12:24:13;;;;;;;1.15;1.00;;;;;;;;;;4929703;28;98857;-76
2023/08/04 12:26:42;;;;;;;3.45;1.45;;;;;;;;;;4929686;28;100018;-77
2023/08/04 12:29:09;;;;;;;1.33;0.82;;;;;;;;;;4932702;28;99960;-77
2023/08/04 12:31:38;;;;;;;1.10;0.90;;;;;;;;;;4930629;28;99738;-77
2023/08/04 12:34:07;;;;;;;4.18;1.17;;;;;;;;;;4929131;28;99818;-78
2023/08/04 12:36:35;;;;;;;2.35;1.13;;;;;;;;;;4928372;28;98949;-77
2023/08/04 12:39:03;;;;;;;1.35;0.73;;;;;;;;;;4928483;28;100619;-77
2023/08/04 12:41:30;;;;;;;1.77;0.80;;;;;;;;;;4928323;28;99883;-76
2023/08/04 12:43:57;;;;;;;4.53;1.20;;;;;;;;;;4928923;28;100336;-76
2023/08/04 12:46:26;;;;;;;1.85;0.85;;;;;;;;;;4929253;28;99347;-73
2023/08/04 12:48:53;;;;;;;0.73;0.73;;;;;;;;;;4922063;28;100297;-74
2023/08/04 12:51:20;;;;;;;4.82;3.13;;;;;;;;;;4921090;28;100747;-76
2023/08/04 12:53:47;;;;;;;1.08;0.80;;;;;;;;;;4919072;28;100535;-77
2023/08/04 12:56:14;;;;;;;3.35;0.98;;;;;;;;;;4924497;28;100672;-77
2023/08/04 12:58:40;;;;;;;1.05;0.95;;;;;;;;;;4926550;28;100378;-75
2023/08/04 13:01:07;;;;;;;1.45;1.15;;;;;;;;;;4923566;28;100256;-75
2023/08/04 13:03:35;;;;;;;0.75;0.70;;;;;;;;;;4921543;28;101051;-75
2023/08/04 13:06:04;;;;;;;1.30;0.85;;;;;;;;;;4924758;28;99927;-77
2023/08/04 13:08:32;;;;;;;2.15;0.85;;;;;;;;;;4922751;28;100323;-76
2023/08/04 13:10:59;;;;;;;2.38;0.75;;;;;;;;;;4921890;28;99165;-75
2023/08/04 13:13:27;;;;;;;2.33;1.13;;;;;;;;;;4932532;28;99198;-74
2023/08/04 13:15:56;;;;;;;2.60;1.00;;;;;;;;;;4929136;28;100215;-74
2023/08/04 13:18:23;;;;;;;1.98;0.70;;;;;;;;;;4928626;28;99497;-73
2023/08/04 13:20:53;;;;;;;3.15;1.00;;;;;;;;;;4930013;28;98879;-73
2023/08/04 13:23:29;;;;;;;3.70;0.98;;;;;;;;;;4928517;28;99162;-73
2023/08/04 13:26:07;;;;;;;2.22;0.90;;;;;;;;;;4929116;28;100690;-73
2023/08/04 13:28:34;;;;;;;1.52;0.90;;;;;;;;;;4928085;28;99502;-74
2023/08/04 13:31:05;;;;;;;1.98;0.70;;;;;;;;;;4928231;28;100941;-73
2023/08/04 13:33:34;;;;;;;3.97;1.10;;;;;;;;;;4928340;28;99766;-75
2023/08/04 13:36:01;;;;;;;2.25;0.80;;;;;;;;;;4932161;28;100052;-74
2023/08/04 13:38:28;;;;;;;1.60;0.80;;;;;;;;;;4927990;28;99699;-74
2023/08/04 13:40:55;;;;;;;2.78;1.00;;;;;;;;;;4927619;28;99109;-74
2023/08/04 13:43:24;;;;;;;3.42;0.82;;;;;;;;;;4928307;28;98997;-75
2023/08/04 13:45:50;;;;;;;2.83;1.05;;;;;;;;;;4928719;28;98775;-74
2023/08/04 13:48:17;;;;;;;0.75;0.73;;;;;;;;;;4928874;28;100333;-74
2023/08/04 13:50:43;;;;;;;2.50;1.08;;;;;;;;;;4928704;28;99987;-74
2023/08/04 13:53:10;;;;;;;1.17;0.73;;;;;;;;;;4927794;28;100868;-74
2023/08/04 13:55:36;;;;;;;1.38;0.85;;;;;;;;;;4928395;28;99175;-74
2023/08/04 13:58:03;;;;;;;1.67;0.88;;;;;;;;;;4931817;28;99892;-75
2023/08/04 14:00:29;;;;;;;1.75;0.82;;;;;;;;;;4927744;28;99330;-75
2023/08/04 14:02:56;;;;;;;0.98;0.68;;;;;;;;;;4928670;28;100072;-75
2023/08/04 14:05:22;;;;;;;2.65;1.00;;;;;;;;;;4927331;28;101010;-75
2023/08/04 14:07:49;;;;;;;3.20;1.27;;;;;;;;;;4928042;28;99024;-73
2023/08/04 14:10:15;;;;;;;6.18;1.00;;;;;;;;;;4928605;28;99939;-74
2023/08/04 14:12:42;;;;;;;2.65;1.13;;;;;;;;;;4927608;28;100772;-74
2023/08/04 14:15:08;;;;;;;1.38;1.00;;;;;;;;;;4928349;28;99007;-74
2023/08/04 14:17:35;;;;;;;3.35;0.88;;;;;;;;;;4926661;28;99185;-74
2023/08/04 14:20:04;;;;;;;1.13;0.88;;;;;;;;;;4915145;28;100628;-73
2023/08/04 14:22:32;;;;;;;0.77;0.65;;;;;;;;;;4909015;28;99773;-74
2023/08/04 14:24:58;;;;;;;3.83;0.73;;;;;;;;;;4908905;28;99437;-75
2023/08/04 14:27:24;;;;;;;1.17;0.90;;;;;;;;;;4907387;28;99488;-76
2023/08/04 14:29:57;;;;;;;1.67;0.85;;;;;;;;;;4913335;28;100005;-75
2023/08/04 14:32:24;;;;;;;0.82;0.63;;;;;;;;;;4916606;28;98497;-75
2023/08/04 14:34:50;;;;;;;1.70;0.77;;;;;;;;;;4908352;28;99884;-75
2023/08/04 14:37:17;;;;;;;1.70;0.90;;;;;;;;;;4926181;28;99457;-75